createdAt,value
2023-04-09T00:01:15.971Z,101841.23
2023-04-09T00:03:44.010Z,101841.25
2023-04-09T00:06:12.948Z,101838.75
2023-04-09T00:08:40.816Z,101838.77
2023-04-09T00:11:08.645Z,101843.12
2023-04-09T00:13:39.632Z,101841.98
2023-04-09T00:16:08.892Z,101845.77
2023-04-09T00:18:37.386Z,101844.34
2023-04-09T00:21:05.842Z,101844.70
2023-04-09T00:23:34.508Z,101840.90
2023-04-09T00:26:02.528Z,101839.90
2023-04-09T00:28:30.527Z,101836.06
2023-04-09T00:30:58.437Z,101832.60
2023-04-09T00:33:27.370Z,101832.09
2023-04-09T00:35:55.699Z,101839.27
2023-04-09T00:38:23.685Z,101838.42
2023-04-09T00:40:51.980Z,101846.62
2023-04-09T00:43:19.920Z,101843.35
2023-04-09T00:45:48.238Z,101841.34
2023-04-09T00:48:17.195Z,101841.39
2023-04-09T00:50:45.071Z,101836.84
2023-04-09T00:53:14.569Z,101837.21
2023-04-09T00:55:42.701Z,101836.81
2023-04-09T00:58:10.542Z,101834.18
2023-04-09T01:00:38.471Z,101831.59
2023-04-09T01:03:07.653Z,101831.44
2023-04-09T01:06:04.165Z,101831.55
2023-04-09T01:08:41.768Z,101833.09
2023-04-09T01:11:24.411Z,101834.81
2023-04-09T01:14:42.599Z,101830.95
2023-04-09T01:17:24.425Z,101831.90
2023-04-09T01:20:01.537Z,101834.27
2023-04-09T01:22:41.304Z,101836.13
2023-04-09T01:25:37.478Z,101830.80
2023-04-09T01:28:46.592Z,101831.16
2023-04-09T01:31:18.698Z,101827.21
2023-04-09T01:33:47.198Z,101832.81
2023-04-09T01:36:15.980Z,101831.11
2023-04-09T01:38:46.145Z,101834.31
2023-04-09T01:41:19.716Z,101836.55
2023-04-09T01:43:51.045Z,101833.94
2023-04-09T01:46:20.295Z,101830.73
2023-04-09T01:48:49.750Z,101832.21
2023-04-09T01:51:18.491Z,101831.80
2023-04-09T01:53:46.364Z,101834.31
2023-04-09T01:56:14.319Z,101837.73
2023-04-09T01:58:42.372Z,101833.74
2023-04-09T02:01:16.631Z,101829.86
2023-04-09T02:03:51.903Z,101834.26
2023-04-09T02:06:48.602Z,101842.64
2023-04-09T02:09:19.537Z,101838.20
2023-04-09T02:11:50.075Z,101839.88
2023-04-09T02:14:19.274Z,101835.94
2023-04-09T02:16:49.407Z,101833.30
2023-04-09T02:19:17.209Z,101833.30
2023-04-09T02:21:46.041Z,101830.08
2023-04-09T02:24:13.933Z,101834.61
2023-04-09T02:26:41.875Z,101834.85
2023-04-09T02:29:10.068Z,101835.23
2023-04-09T02:31:37.999Z,101832.08
2023-04-09T02:34:05.887Z,101832.81
2023-04-09T02:36:34.151Z,101831.45
2023-04-09T02:39:02.092Z,101831.48
2023-04-09T02:41:30.037Z,101830.48
2023-04-09T02:43:57.904Z,101829.77
2023-04-09T02:46:26.829Z,101828.82
2023-04-09T02:48:54.795Z,101826.77
2023-04-09T02:51:22.876Z,101826.96
2023-04-09T02:53:50.883Z,101828.26
2023-04-09T02:56:18.912Z,101825.75
2023-04-09T02:58:49.555Z,101820.02
2023-04-09T03:01:17.683Z,101821.53
2023-04-09T03:03:46.340Z,101815.28
2023-04-09T03:06:14.369Z,101812.27
2023-04-09T03:08:42.234Z,101808.95
2023-04-09T03:11:10.235Z,101804.85
2023-04-09T03:13:39.031Z,101805.03
2023-04-09T03:16:07.349Z,101804.04
2023-04-09T03:18:35.270Z,101799.39
2023-04-09T03:21:07.872Z,101800.48
2023-04-09T03:23:37.247Z,101800.23
2023-04-09T03:26:06.889Z,101797.84
2023-04-09T03:28:40.982Z,101791.13
2023-04-09T03:31:08.813Z,101783.30
2023-04-09T03:33:38.181Z,101781.17
2023-04-09T03:36:06.369Z,101780.00
2023-04-09T03:38:43.092Z,101782.11
2023-04-09T03:41:22.146Z,101785.71
2023-04-09T03:43:50.272Z,101785.91
2023-04-09T03:46:20.371Z,101795.49
2023-04-09T03:48:48.860Z,101796.75
2023-04-09T03:51:17.291Z,101799.81
2023-04-09T03:53:50.560Z,101798.48
2023-04-09T03:56:18.412Z,101789.24
2023-04-09T03:58:48.502Z,101788.39
2023-04-09T04:01:22.070Z,101789.39
2023-04-09T04:03:54.732Z,101791.53
2023-04-09T04:06:24.898Z,101791.82
2023-04-09T04:08:58.462Z,101792.41
2023-04-09T04:11:34.085Z,101795.02
2023-04-09T04:14:01.953Z,101799.17
2023-04-09T04:16:30.123Z,101801.88
2023-04-09T04:18:58.637Z,101801.59
2023-04-09T04:21:27.381Z,101802.17
2023-04-09T04:24:00.118Z,101801.52
2023-04-09T04:26:30.020Z,101799.54
2023-04-09T04:28:58.208Z,101796.63
2023-04-09T04:31:46.596Z,101795.23
2023-04-09T04:34:15.372Z,101795.30
2023-04-09T04:36:44.085Z,101795.90
2023-04-09T04:39:12.399Z,101797.14
2023-04-09T04:41:52.059Z,101800.77
2023-04-09T04:44:23.143Z,101796.55
2023-04-09T04:46:55.077Z,101798.69
2023-04-09T04:49:22.929Z,101797.41
2023-04-09T04:51:52.271Z,101797.73
2023-04-09T04:54:20.235Z,101796.02
2023-04-09T04:56:53.394Z,101794.53
2023-04-09T04:59:32.620Z,101796.86
2023-04-09T05:02:04.946Z,101799.20
2023-04-09T05:04:38.087Z,101799.49
2023-04-09T05:07:06.819Z,101798.11
2023-04-09T05:09:36.511Z,101796.69
2023-04-09T05:12:08.373Z,101799.40
2023-04-09T05:14:36.401Z,101800.94
2023-04-09T05:17:04.327Z,101806.08
2023-04-09T05:19:41.402Z,101812.31
2023-04-09T05:22:10.530Z,101811.27
2023-04-09T05:24:38.372Z,101811.31
2023-04-09T05:27:07.074Z,101808.09
2023-04-09T05:29:35.744Z,101815.60
2023-04-09T05:32:04.546Z,101818.72
2023-04-09T05:34:36.411Z,101817.18
2023-04-09T05:37:05.769Z,101812.97
2023-04-09T05:39:34.327Z,101810.13
2023-04-09T05:42:02.423Z,101805.31
2023-04-09T05:44:34.178Z,101803.73
2023-04-09T05:47:15.803Z,101806.49
2023-04-09T05:49:49.716Z,101806.61
2023-04-09T05:52:19.956Z,101810.52
2023-04-09T05:54:48.173Z,101816.94
2023-04-09T05:57:22.355Z,101816.09
2023-04-09T05:59:55.801Z,101814.52
2023-04-09T06:02:25.313Z,101812.05
2023-04-09T06:04:55.783Z,101815.67
2023-04-09T06:07:23.771Z,101811.60
2023-04-09T06:09:51.637Z,101813.63
2023-04-09T06:12:19.547Z,101814.07
2023-04-09T06:14:48.847Z,101813.39
2023-04-09T06:17:16.741Z,101816.68
2023-04-09T06:19:44.668Z,101815.55
2023-04-09T06:22:12.519Z,101811.93
2023-04-09T06:24:40.448Z,101814.98
2023-04-09T06:27:08.398Z,101817.35
2023-04-09T06:29:36.204Z,101818.33
2023-04-09T06:32:04.396Z,101820.92
2023-04-09T06:34:32.360Z,101818.44
2023-04-09T06:37:00.531Z,101820.95
2023-04-09T06:39:28.668Z,101823.07
2023-04-09T06:41:56.641Z,101820.48
2023-04-09T06:44:39.361Z,101818.20
2023-04-09T06:47:08.918Z,101815.88
2023-04-09T06:49:36.829Z,101818.27
2023-04-09T06:52:05.743Z,101817.92
2023-04-09T06:54:33.683Z,101813.67
2023-04-09T06:57:01.527Z,101818.20
2023-04-09T06:59:29.381Z,101827.86
2023-04-09T07:01:57.325Z,101829.20
2023-04-09T07:04:25.714Z,101831.48
2023-04-09T07:06:54.993Z,101838.33
2023-04-09T07:09:22.808Z,101840.86
2023-04-09T07:11:50.732Z,101845.17
2023-04-09T07:14:18.627Z,101848.39
2023-04-09T07:16:46.692Z,101850.67
2023-04-09T07:19:14.765Z,101853.14
2023-04-09T07:21:42.671Z,101856.58
2023-04-09T07:24:10.537Z,101859.46
2023-04-09T07:26:38.446Z,101858.25
2023-04-09T07:29:06.480Z,101858.73
2023-04-09T07:31:35.913Z,101861.81
2023-04-09T07:34:04.019Z,101861.05
2023-04-09T07:36:31.966Z,101862.42
2023-04-09T07:39:00.003Z,101868.66
2023-04-09T07:41:27.999Z,101863.64
2023-04-09T07:43:56.376Z,101866.42
2023-04-09T07:46:24.455Z,101868.08
2023-04-09T07:48:53.038Z,101866.91
2023-04-09T07:51:21.201Z,101873.58
2023-04-09T07:53:49.160Z,101871.88
2023-04-09T07:56:17.188Z,101874.23
2023-04-09T07:58:45.455Z,101873.95
2023-04-09T08:01:13.354Z,101873.60
2023-04-09T08:03:42.630Z,101877.84
2023-04-09T08:06:10.580Z,101878.80
2023-04-09T08:08:38.903Z,101880.08
2023-04-09T08:11:07.129Z,101880.77
2023-04-09T08:13:35.031Z,101877.73
2023-04-09T08:16:03.986Z,101876.93
2023-04-09T08:18:32.149Z,101876.27
2023-04-09T08:21:04.743Z,101876.23
2023-04-09T08:23:32.719Z,101871.85
2023-04-09T08:26:00.790Z,101874.73
2023-04-09T08:28:28.751Z,101873.82
2023-04-09T08:30:56.666Z,101871.80
2023-04-09T08:33:24.554Z,101875.91
2023-04-09T08:35:52.580Z,101875.89
2023-04-09T08:38:20.613Z,101873.70
2023-04-09T08:40:48.453Z,101870.03
2023-04-09T08:43:19.606Z,101871.90
2023-04-09T08:45:47.604Z,101869.68
2023-04-09T08:48:17.165Z,101866.96
2023-04-09T08:50:46.288Z,101868.37
2023-04-09T08:53:17.031Z,101863.49
2023-04-09T08:55:46.512Z,101863.15
2023-04-09T08:58:14.710Z,101866.49
2023-04-09T09:00:42.666Z,101869.23
2023-04-09T09:03:13.367Z,101868.20
2023-04-09T09:05:43.034Z,101869.84
2023-04-09T09:08:13.851Z,101870.92
2023-04-09T09:10:44.035Z,101872.14
2023-04-09T09:13:19.084Z,101871.08
2023-04-09T09:15:49.951Z,101871.39
2023-04-09T09:18:19.437Z,101872.96
2023-04-09T09:20:47.719Z,101871.52
2023-04-09T09:23:16.304Z,101875.96
2023-04-09T09:25:44.230Z,101878.06
2023-04-09T09:28:13.189Z,101879.89
2023-04-09T09:30:41.174Z,101875.47
2023-04-09T09:33:10.740Z,101875.16
2023-04-09T09:35:50.193Z,101879.73
2023-04-09T09:38:18.682Z,101879.86
2023-04-09T09:40:47.816Z,101876.38
2023-04-09T09:43:16.423Z,101874.64
2023-04-09T09:45:46.745Z,101872.49
2023-04-09T09:48:15.627Z,101875.61
2023-04-09T09:50:46.593Z,101875.96
2023-04-09T09:53:17.465Z,101872.59
2023-04-09T09:55:49.416Z,101870.08
2023-04-09T09:58:23.804Z,101874.05
2023-04-09T10:00:52.878Z,101874.52
2023-04-09T10:03:25.159Z,101869.83
2023-04-09T10:05:54.036Z,101868.68
2023-04-09T10:08:23.584Z,101865.15
2023-04-09T10:10:52.853Z,101865.52
2023-04-09T10:13:32.675Z,101860.69
2023-04-09T10:16:01.973Z,101857.92
2023-04-09T10:18:33.659Z,101856.41
2023-04-09T10:21:17.418Z,101856.92
2023-04-09T10:23:50.973Z,101854.80
2023-04-09T10:26:20.376Z,101852.80
2023-04-09T10:29:06.991Z,101847.55
2023-04-09T10:31:55.068Z,101849.02
2023-04-09T10:34:28.201Z,101852.19
2023-04-09T10:36:58.604Z,101849.69
2023-04-09T10:39:28.852Z,101848.66
2023-04-09T10:41:58.258Z,101844.33
2023-04-09T10:44:27.938Z,101846.08
2023-04-09T10:46:56.752Z,101841.88
2023-04-09T10:49:26.623Z,101841.39
2023-04-09T10:52:10.865Z,101836.70
2023-04-09T10:54:46.486Z,101833.25
2023-04-09T10:57:18.283Z,101830.98
2023-04-09T10:59:51.959Z,101829.33
2023-04-09T11:02:38.809Z,101828.37
2023-04-09T11:05:24.649Z,101827.73
2023-04-09T11:08:05.601Z,101831.45
2023-04-09T11:10:34.043Z,101832.48
2023-04-09T11:13:03.120Z,101832.86
2023-04-09T11:15:34.510Z,101829.48
2023-04-09T11:18:03.479Z,101828.73
2023-04-09T11:20:34.119Z,101829.23
2023-04-09T11:23:02.764Z,101825.69
2023-04-09T11:25:32.317Z,101825.47
2023-04-09T11:28:02.806Z,101823.02
2023-04-09T11:30:31.347Z,101820.55
2023-04-09T11:32:59.230Z,101820.73
2023-04-09T11:35:27.450Z,101822.16
2023-04-09T11:37:55.435Z,101822.15
2023-04-09T11:40:25.972Z,101816.02
2023-04-09T11:42:55.358Z,101813.23
2023-04-09T11:45:26.545Z,101813.32
2023-04-09T11:47:55.136Z,101814.11
2023-04-09T11:50:23.451Z,101815.59
2023-04-09T11:52:51.370Z,101820.69
2023-04-09T11:55:29.809Z,101825.91
2023-04-09T11:58:01.352Z,101827.41
2023-04-09T12:00:29.554Z,101826.83
2023-04-09T12:03:05.594Z,101828.77
2023-04-09T12:05:35.683Z,101826.52
2023-04-09T12:08:08.184Z,101831.46
2023-04-09T12:10:38.139Z,101835.81
2023-04-09T12:13:08.317Z,101832.19
2023-04-09T12:15:38.929Z,101833.39
2023-04-09T12:18:13.471Z,101832.67
2023-04-09T12:20:47.612Z,101829.36
2023-04-09T12:23:17.418Z,101828.98
2023-04-09T12:25:45.573Z,101823.66
2023-04-09T12:28:15.954Z,101828.15
2023-04-09T12:30:44.632Z,101830.69
2023-04-09T12:33:12.678Z,101834.27
2023-04-09T12:35:40.634Z,101834.94
2023-04-09T12:38:08.686Z,101831.59
2023-04-09T12:40:37.113Z,101835.23
2023-04-09T12:43:05.652Z,101833.04
2023-04-09T12:45:33.650Z,101835.27
2023-04-09T12:48:01.607Z,101833.88
2023-04-09T12:50:29.550Z,101832.83
2023-04-09T12:52:57.415Z,101833.50
2023-04-09T12:55:25.473Z,101830.68
2023-04-09T12:57:53.420Z,101828.73
2023-04-09T13:00:21.388Z,101825.27
2023-04-09T13:02:49.939Z,101825.54
2023-04-09T13:05:18.079Z,101823.59
2023-04-09T13:07:46.817Z,101824.95
2023-04-09T13:10:14.752Z,101822.18
2023-04-09T13:12:42.598Z,101824.20
2023-04-09T13:15:11.936Z,101823.59
2023-04-09T13:17:39.802Z,101820.55
2023-04-09T13:20:08.412Z,101819.58
2023-04-09T13:22:36.649Z,101823.80
2023-04-09T13:25:04.950Z,101817.14
2023-04-09T13:27:33.177Z,101817.94
2023-04-09T13:30:01.045Z,101822.40
2023-04-09T13:32:29.219Z,101823.00
2023-04-09T13:34:58.056Z,101821.41
2023-04-09T13:37:26.231Z,101822.61
2023-04-09T13:39:54.062Z,101817.06
2023-04-09T13:42:21.978Z,101816.92
2023-04-09T13:44:49.771Z,101815.31
2023-04-09T13:47:18.164Z,101817.39
2023-04-09T13:49:46.264Z,101816.00
2023-04-09T13:52:14.445Z,101816.97
2023-04-09T13:54:42.494Z,101816.27
2023-04-09T13:57:10.706Z,101818.65
2023-04-09T13:59:38.629Z,101814.05
2023-04-09T14:02:06.715Z,101815.83
2023-04-09T14:04:34.958Z,101817.36
2023-04-09T14:07:02.885Z,101813.03
2023-04-09T14:09:30.782Z,101809.33
2023-04-09T14:11:58.664Z,101808.77
2023-04-09T14:14:26.767Z,101808.55
2023-04-09T14:16:55.501Z,101807.43
2023-04-09T14:19:23.417Z,101806.30
2023-04-09T14:21:53.382Z,101803.98
2023-04-09T14:24:23.212Z,101804.08
2023-04-09T14:26:53.617Z,101806.75
2023-04-09T14:29:22.150Z,101803.44
2023-04-09T14:31:50.359Z,101802.27
2023-04-09T14:34:18.299Z,101798.41
2023-04-09T14:36:46.228Z,101795.64
2023-04-09T14:39:14.263Z,101792.47
2023-04-09T14:41:42.322Z,101786.83
2023-04-09T14:44:10.395Z,101788.56
2023-04-09T14:46:38.299Z,101788.50
2023-04-09T14:49:06.456Z,101782.77
2023-04-09T14:51:34.528Z,101779.98
2023-04-09T14:54:02.438Z,101774.67
2023-04-09T14:56:30.461Z,101776.27
2023-04-09T14:58:58.257Z,101772.55
2023-04-09T15:01:27.198Z,101772.55
2023-04-09T15:03:55.671Z,101770.27
2023-04-09T15:06:23.849Z,101774.09
2023-04-09T15:08:51.985Z,101770.58
2023-04-09T15:11:22.820Z,101769.31
2023-04-09T15:13:51.942Z,101770.29
2023-04-09T15:16:28.781Z,101771.25
2023-04-09T15:18:58.912Z,101771.81
2023-04-09T15:21:27.928Z,101772.23
2023-04-09T15:23:59.062Z,101767.77
2023-04-09T15:26:27.534Z,101770.04
2023-04-09T15:29:04.125Z,101771.70
2023-04-09T15:31:33.374Z,101766.72
2023-04-09T15:34:01.519Z,101767.83
2023-04-09T15:36:31.046Z,101768.84
2023-04-09T15:38:59.019Z,101770.23
2023-04-09T15:41:26.970Z,101768.83
2023-04-09T15:43:54.947Z,101768.53
2023-04-09T15:46:22.879Z,101770.02
2023-04-09T15:48:51.162Z,101773.31
2023-04-09T15:51:19.207Z,101774.67
2023-04-09T15:53:47.204Z,101770.96
2023-04-09T15:56:17.825Z,101776.42
2023-04-09T15:58:46.524Z,101773.01
2023-04-09T16:01:15.256Z,101777.30
2023-04-09T16:03:43.353Z,101776.79
2023-04-09T16:06:14.731Z,101775.58
2023-04-09T16:08:42.587Z,101780.14
2023-04-09T16:11:10.829Z,101781.02
2023-04-09T16:13:38.776Z,101780.66
2023-04-09T16:16:07.437Z,101777.77
2023-04-09T16:18:35.744Z,101779.56
2023-04-09T16:21:04.364Z,101781.03
2023-04-09T16:23:33.164Z,101777.62
2023-04-09T16:26:01.190Z,101773.65
2023-04-09T16:28:29.010Z,101773.45
2023-04-09T16:30:56.940Z,101774.81
2023-04-09T16:33:24.949Z,101772.54
2023-04-09T16:35:53.063Z,101771.27
2023-04-09T16:38:21.106Z,101769.56
2023-04-09T16:40:48.995Z,101773.63
2023-04-09T16:43:16.946Z,101770.10
2023-04-09T16:45:44.942Z,101769.23
2023-04-09T16:48:13.571Z,101766.86
2023-04-09T16:50:42.912Z,101775.16
2023-04-09T16:53:10.882Z,101774.32
2023-04-09T16:55:39.062Z,101778.38
2023-04-09T16:58:06.885Z,101782.88
2023-04-09T17:00:35.467Z,101786.51
2023-04-09T17:03:04.071Z,101787.13
2023-04-09T17:05:32.718Z,101788.81
2023-04-09T17:08:01.380Z,101784.02
2023-04-09T17:10:29.316Z,101782.00
2023-04-09T17:12:57.203Z,101783.96
2023-04-09T17:15:25.923Z,101787.23
2023-04-09T17:17:54.369Z,101785.54
2023-04-09T17:20:22.818Z,101779.86
2023-04-09T17:22:51.375Z,101781.61
2023-04-09T17:25:20.519Z,101777.83
2023-04-09T17:27:48.604Z,101778.95
2023-04-09T17:30:16.613Z,101785.55
2023-04-09T17:32:44.957Z,101785.85
2023-04-09T17:35:13.298Z,101785.62
2023-04-09T17:37:41.105Z,101785.77
2023-04-09T17:40:10.191Z,101787.06
2023-04-09T17:42:38.719Z,101785.12
2023-04-09T17:45:07.723Z,101787.92
2023-04-09T17:47:35.739Z,101790.48
2023-04-09T17:50:04.485Z,101793.13
2023-04-09T17:52:36.784Z,101797.95
2023-04-09T17:55:11.783Z,101798.97
2023-04-09T17:57:41.796Z,101798.85
2023-04-09T18:00:12.323Z,101799.23
2023-04-09T18:02:54.189Z,101803.70
2023-04-09T18:05:23.293Z,101800.05
2023-04-09T18:07:53.763Z,101803.41
2023-04-09T18:10:23.449Z,101804.14
2023-04-09T18:12:51.933Z,101807.33
2023-04-09T18:15:21.813Z,101805.26
2023-04-09T18:17:49.968Z,101807.35
2023-04-09T18:20:18.325Z,101810.11
2023-04-09T18:22:46.446Z,101815.16
2023-04-09T18:25:14.650Z,101817.76
2023-04-09T18:27:42.970Z,101818.08
2023-04-09T18:30:11.851Z,101816.30
2023-04-09T18:32:40.099Z,101820.61
2023-04-09T18:35:08.429Z,101821.48
2023-04-09T18:37:36.395Z,101822.17
2023-04-09T18:40:06.196Z,101820.44
2023-04-09T18:42:34.230Z,101823.85
2023-04-09T18:45:02.487Z,101827.48
2023-04-09T18:47:30.480Z,101827.79
2023-04-09T18:49:59.120Z,101831.02
2023-04-09T18:52:27.372Z,101835.85
2023-04-09T18:54:55.533Z,101839.17
2023-04-09T18:57:23.687Z,101843.21
2023-04-09T18:59:51.674Z,101840.62
2023-04-09T19:02:20.060Z,101841.30
2023-04-09T19:04:48.950Z,101847.54
2023-04-09T19:07:19.506Z,101852.11
2023-04-09T19:09:47.407Z,101849.42
2023-04-09T19:12:15.884Z,101851.73
2023-04-09T19:14:43.701Z,101851.87
2023-04-09T19:17:11.887Z,101848.45
2023-04-09T19:19:40.151Z,101847.86
2023-04-09T19:22:07.993Z,101846.46
2023-04-09T19:24:36.508Z,101849.45
2023-04-09T19:27:10.024Z,101845.39
2023-04-09T19:29:38.413Z,101850.09
2023-04-09T19:32:09.326Z,101850.94
2023-04-09T19:34:37.262Z,101851.42
2023-04-09T19:37:05.076Z,101855.02
2023-04-09T19:39:32.872Z,101855.41
2023-04-09T19:42:00.828Z,101860.96
2023-04-09T19:44:29.062Z,101861.72
2023-04-09T19:46:56.976Z,101864.33
2023-04-09T19:49:25.278Z,101863.05
2023-04-09T19:51:53.199Z,101865.83
2023-04-09T19:54:21.898Z,101862.75
2023-04-09T19:56:50.121Z,101867.67
2023-04-09T19:59:18.346Z,101871.21
2023-04-09T20:01:48.113Z,101870.98
2023-04-09T20:04:16.345Z,101870.88
2023-04-09T20:06:44.690Z,101869.23
2023-04-09T20:09:12.729Z,101873.92
2023-04-09T20:11:42.226Z,101876.93
2023-04-09T20:14:12.286Z,101871.54
2023-04-09T20:16:40.256Z,101871.70
2023-04-09T20:19:08.169Z,101872.27
2023-04-09T20:21:36.094Z,101876.11
2023-04-09T20:24:04.211Z,101876.70
2023-04-09T20:26:32.119Z,101880.30
2023-04-09T20:29:00.108Z,101881.55
2023-04-09T20:31:28.675Z,101877.42
2023-04-09T20:33:56.615Z,101886.27
2023-04-09T20:36:24.550Z,101882.71
2023-04-09T20:38:53.592Z,101884.63
2023-04-09T20:41:21.825Z,101885.98
2023-04-09T20:43:49.736Z,101881.09
2023-04-09T20:46:17.764Z,101882.02
2023-04-09T20:48:45.629Z,101883.57
2023-04-09T20:51:13.641Z,101881.67
2023-04-09T20:53:41.532Z,101881.54
2023-04-09T20:56:09.513Z,101882.28
2023-04-09T20:58:37.428Z,101880.53
2023-04-09T21:01:07.801Z,101882.90
2023-04-09T21:03:37.642Z,101884.14
2023-04-09T21:06:09.817Z,101884.77
2023-04-09T21:08:43.545Z,101884.55
2023-04-09T21:11:12.654Z,101881.72
2023-04-09T21:13:53.602Z,101883.31
2023-04-09T21:16:23.001Z,101882.31
2023-04-09T21:18:51.638Z,101878.36
2023-04-09T21:21:19.916Z,101875.43
2023-04-09T21:23:47.800Z,101876.05
2023-04-09T21:26:15.721Z,101873.00
2023-04-09T21:28:44.240Z,101873.48
2023-04-09T21:31:12.251Z,101873.72
2023-04-09T21:33:40.303Z,101870.90
2023-04-09T21:36:08.551Z,101874.45
2023-04-09T21:38:36.668Z,101873.56
2023-04-09T21:41:04.870Z,101871.09
2023-04-09T21:43:32.885Z,101876.20
2023-04-09T21:46:02.297Z,101873.80
2023-04-09T21:48:31.248Z,101874.56
2023-04-09T21:50:59.560Z,101877.41
2023-04-09T21:53:28.336Z,101877.84
2023-04-09T21:55:56.303Z,101882.34
2023-04-09T21:58:24.203Z,101884.62
2023-04-09T22:00:52.268Z,101880.36
2023-04-09T22:03:20.411Z,101879.95
2023-04-09T22:05:48.611Z,101880.98
2023-04-09T22:08:16.559Z,101879.28
2023-04-09T22:10:44.514Z,101878.29
2023-04-09T22:13:12.353Z,101877.05
2023-04-09T22:15:41.898Z,101875.11
2023-04-09T22:18:09.947Z,101880.08
2023-04-09T22:20:37.979Z,101880.00
2023-04-09T22:23:05.993Z,101877.45
2023-04-09T22:25:35.239Z,101876.89
2023-04-09T22:28:05.820Z,101877.41
2023-04-09T22:30:33.885Z,101880.09
2023-04-09T22:33:02.389Z,101876.20
2023-04-09T22:35:32.708Z,101871.73
2023-04-09T22:38:00.621Z,101875.71
2023-04-09T22:40:28.575Z,101878.46
2023-04-09T22:42:56.477Z,101878.79
2023-04-09T22:45:27.893Z,101881.68
2023-04-09T22:47:57.132Z,101882.23
2023-04-09T22:50:28.859Z,101881.01
2023-04-09T22:52:56.776Z,101885.48
2023-04-09T22:55:24.708Z,101881.71
2023-04-09T22:57:53.254Z,101886.09
2023-04-09T23:00:21.271Z,101890.89
2023-04-09T23:02:50.943Z,101889.27
2023-04-09T23:05:19.252Z,101885.44
2023-04-09T23:07:47.177Z,101883.81
2023-04-09T23:10:17.404Z,101879.92
2023-04-09T23:12:45.391Z,101880.58
2023-04-09T23:15:13.434Z,101883.44
2023-04-09T23:17:41.764Z,101887.23
2023-04-09T23:20:11.487Z,101883.88
2023-04-09T23:22:39.396Z,101884.39
2023-04-09T23:25:07.646Z,101886.63
2023-04-09T23:27:35.589Z,101879.37
2023-04-09T23:30:03.732Z,101878.59
2023-04-09T23:32:31.658Z,101877.09
2023-04-09T23:35:01.283Z,101876.85
2023-04-09T23:37:29.331Z,101878.77
2023-04-09T23:39:57.226Z,101879.85
2023-04-09T23:42:26.346Z,101877.34
2023-04-09T23:44:54.266Z,101876.67
2023-04-09T23:47:22.261Z,101875.59
2023-04-09T23:49:50.112Z,101876.89
2023-04-09T23:52:18.004Z,101875.04
2023-04-09T23:54:51.694Z,101872.27
2023-04-09T23:57:19.595Z,101868.77
2023-04-09T23:59:47.593Z,101865.79
